Weather observations for the past three days for
Newnan, Newnan Coweta County Airport
Metric (Imperial)
Date Time (edt) Wind (kph) Vis. (km) Weather Sky Cond. Temperature (ºC) Relative Humidity Wind Chill (°C) Heat Index (°C) Pressure Precipitation (cm)
Air Dwpt 6 hour altimeter (cm) sea level (mb) 1 hr 3 hr 6 hr
Max. Min.
04 22:55 S 6 16.09 Fair CLR 18 4.8 42% 76.2 0.0
04 22:35 S 6 16.09 Fair CLR 17.3 5.2 45% 76.2 0.0
04 22:15 S 6 16.09 Fair CLR 16.9 5.6 48% 76.17 0.0
04 21:55 Calm 16.09 Fair CLR 18.1 5 42% 76.17 0.0
04 21:35 S 6 16.09 Fair CLR 19.5 4.2 37% 76.15 0.0
04 21:15 S 6 16.09 Fair CLR 19.9 3.9 35% 76.15 0.0
04 20:55 Calm 16.09 Fair CLR 20.2 4.1 35% 76.15 0.0
04 20:35 Calm 16.09 Fair CLR 20.8 4.7 35% 76.15 0.0
04 20:15 S 6 16.09 Fair CLR 21.6 5.1 34% 76.12 0.0
04 19:55 S 6 16.09 Fair CLR 22.5 4.8 25.3 22.5 32% 76.12 0.0
04 19:35 S 7 16.09 Fair CLR 22.8 4.8 31% 76.12 0.0
04 19:15 Calm 16.09 Fair CLR 23.1 5.2 31% 76.12 0.0
04 18:55 Calm 16.09 Fair CLR 23.5 4.6 29% 76.12 0.0
04 18:35 Calm 16.09 Fair CLR 24.7 3.7 26% 25 76.12 0.0
04 18:15 SW 9 16.09 Fair CLR 24.2 3 25% 25 76.12 0.0
04 17:55 S 11 16.09 Fair CLR 25.3 3.2 24% 25 76.12 0.0
04 17:35 SW 6 16.09 Fair CLR 24.8 2.3 23% 25 76.12 0.0
04 17:15 S 7 16.09 Fair CLR 24.7 2.8 24% 25 76.12 0.0
04 16:55 S 9 16.09 Fair CLR 24.9 1.8 22% 25 76.12 0.0
04 16:35 S 9 16.09 Fair CLR 24.9 3.9 26% 25 76.15 0.0
04 16:15 S 9 16.09 Fair CLR 24.9 4.3 26% 25 76.17 0.0
04 15:55 S 7 16.09 Fair CLR 24.2 3.3 26% 25 76.17 0.0
04 15:35 SE 11 16.09 Fair CLR 24.3 3.1 25% 25 76.2 0.0
04 15:15 S 11 16.09 Fair CLR 24.8 3.9 26% 25 76.23 0.0
04 14:55 Calm 16.09 Fair CLR 24.2 2.6 24% 25 76.25 0.0
04 14:35 Calm 16.09 Fair CLR 23.9 3.4 26% 25 76.25 0.0
04 13:55 SW 9 16.09 Fair CLR 23.1 4.6 23.2 10.2 30% 76.3 0.0
04 13:35 W 7 16.09 Fair CLR 22.9 4.4 30% 76.3 0.0
04 13:15 N 7 16.09 Fair CLR 22.3 3.6 29% 76.33 0.0
04 12:55 Calm 16.09 Fair CLR 21.8 3.4 30% 76.35 0.0
04 12:35 Calm 16.09 Fair CLR 21.9 4.2 32% 76.35 0.0
04 12:15 W 6 16.09 Fair CLR 21.2 4 32% 76.38 0.0
04 11:55 SW 6 16.09 Fair CLR 21 6 38% 76.4 0.0
04 11:35 Calm 16.09 Fair CLR 20.3 5.6 38% 76.4 0.0
04 11:15 Calm 16.09 Fair CLR 19.5 5.4 40% 76.43 0.0
04 10:55 SW 9 16.09 Fair CLR 19.1 5 40% 76.43 0.0
04 10:35 SW 7 16.09 Fair CLR 18.3 4.4 40% 76.43 0.0
04 10:15 SW 7 16.09 Fair CLR 18 5.1 43% 76.45 0.0
04 09:55 SW 7 16.09 Fair CLR 17 5.4 47% 76.45 0.0
04 09:35 SW 7 16.09 Fair CLR 16.1 6.5 53% 76.43 0.0
04 09:15 SW 6 16.09 Fair CLR 15.2 6.5 56% 76.43 0.0
04 08:55 Calm 16.09 Fair CLR 13.9 7.4 65% 76.43 0.0
04 08:35 Calm 16.09 Fair CLR 12.4 7.5 72% 76.43 0.0
04 08:15 Calm 16.09 Fair CLR 10.7 7.4 80% 76.43 0.0
04 07:55 Calm 16.09 Fair CLR 10 7.8 10 6.3 86% 76.43 0.0
04 07:35 Calm 16.09 Fair CLR 8.1 6.3 89% 76.4 0.0
04 07:15 Calm 16.09 Fair CLR 7.1 5.5 90% 76.38 0.0
04 06:55 Calm 16.09 Fair CLR 6.8 5.2 90% 76.38 0.0
04 06:35 Calm 16.09 Fair CLR 7 5.1 88% 76.35 0.0
04 06:15 Calm 16.09 Fair CLR 7 5.5 90% 76.35 0.0
04 05:55 Calm 16.09 Fair CLR 6.3 5.2 93% 76.38 0.0
04 05:35 Calm 16.09 Fair CLR 7.2 5.5 89% 76.38 0.0
04 05:15 Calm 16.09 Fair CLR 7.9 5.2 83% 76.38 0.0
04 04:55 Calm 16.09 Fair CLR 8.5 5.6 82% 76.38 0.0
04 04:35 Calm 16.09 Fair CLR 7.9 5.5 85% 76.38 0.0
04 04:15 Calm 16.09 Fair CLR 8.1 5.5 84% 76.38 0.0
04 03:55 Calm 16.09 Fair CLR 8.2 5.5 83% 76.38 0.0
04 03:35 Calm 16.09 Fair CLR 7.5 5.5 87% 76.38 0.0
04 03:15 Calm 16.09 Fair CLR 8.5 5.5 82% 76.38 0.0
04 02:55 Calm 16.09 Fair CLR 9.4 5.4 76% 76.4 0.0
04 02:35 Calm 16.09 Fair CLR 8.6 5 78% 76.4 0.0
04 02:15 Calm 16.09 Fair CLR 9 4.8 75% 76.4 0.0
04 01:55 Calm 16.09 Fair CLR 9.7 4.5 19.1 9.5 70% 76.4 0.0
04 01:35 Calm 16.09 Fair CLR 9.5 4.8 73% 76.43 0.0
04 01:15 Calm 16.09 Fair CLR 10 5 71% 76.43 0.0
04 00:55 Calm 16.09 Fair CLR 10.3 5.8 74% 76.45 0.0
04 00:35 Calm 16.09 Fair CLR 11.4 4.7 64% 76.45 0.0
04 00:15 Calm 16.09 Fair CLR 11.1 5 66% 76.45 0.0
03 23:55 Calm 16.09 Fair CLR 11.2 5.2 67% 76.45 0.0
03 23:35 Calm 16.09 Fair CLR 11.6 4.8 63% 76.45 0.0
03 23:15 Calm 16.09 Fair CLR 11.9 5.1 63% 76.45 0.0
03 22:55 Calm 16.09 Fair CLR 13.4 3.6 52% 76.43 0.0
03 22:35 Calm 16.09 Fair CLR 14.9 2.5 43% 76.43 0.0
03 22:15 Calm 16.09 Fair CLR 14.8 3.1 46% 76.43 0.0
03 21:55 Calm 16.09 Fair CLR 14.1 4.1 51% 76.4 0.0
03 21:35 Calm 16.09 Fair CLR 15 3.8 47% 76.38 0.0
03 21:15 Calm 16.09 Fair CLR 15.2 4 47% 76.35 0.0
03 20:55 Calm 16.09 Fair CLR 16 3.6 44% 76.35 0.0
03 20:35 Calm 16.09 Fair CLR 17 3.6 41% 76.33 0.0
03 20:15 Calm 16.09 Fair CLR 18.2 2.5 35% 76.33 0.0
03 19:55 Calm 16.09 Fair CLR 19.2 1.9 21.4 18.7 32% 76.33 0.0
03 19:35 Calm 16.09 Fair CLR 20 1 28% 76.33 0.0
03 19:15 W 6 16.09 Fair CLR 20.2 0.9 28% 76.33 0.0
03 18:55 W 7 16.09 Fair CLR 20.6 0.3 26% 76.33 0.0
03 18:35 W 7 16.09 Fair CLR 20.9 0.7 26% 76.33 0.0
03 18:15 NW 9 16.09 Fair CLR 21.1 0.5 25% 76.33 0.0
03 17:55 W 6 16.09 Fair CLR 21.1 0.8 26% 76.35 0.0
03 17:35 W 7 16.09 Fair CLR 21.1 0.9 26% 76.35 0.0
03 17:15 S 6 16.09 Fair CLR 20.6 1.4 28% 76.35 0.0
03 16:55 NW 7 G 44 16.09 Fair CLR 21.3 0.7 25% 76.35 0.0
03 16:35 W 7 16.09 Fair CLR 21 0.3 25% 76.38 0.0
03 16:15 Calm 16.09 Fair CLR 20.6 0.9 27% 76.4 0.0
03 15:55 N 15 16.09 Fair CLR 20.9 0.3 25% 76.4 0.0
03 15:35 NW 15 16.09 Fair CLR 20.7 0.8 27% 76.43 0.0
03 14:55 W 7 16.09 Fair CLR 20.1 0.7 27% 76.48 0.0
03 14:35 W 7 16.09 Fair CLR 20 1.3 29% 76.5 0.0
03 14:15 W 7 16.09 Fair CLR 19.3 1 30% 76.53 0.0
03 13:55 NW 9 16.09 Fair CLR 18.9 0.6 18.9 10.1 29% 76.53 0.0
03 13:35 NW 6 16.09 Fair CLR 18.7 1.2 31% 76.56 0.0
03 13:15 NW 11 16.09 Fair CLR 17.8 0.6 32% 76.56 0.0
03 12:55 W 9 16.09 Fair CLR 18.1 1.5 33% 76.58 0.0
03 12:35 N 7 16.09 Fair CLR 17.1 1.9 36% 76.58 0.0
03 12:15 N 19 16.09 Fair CLR 17 1.5 35% 76.58 0.0
03 11:55 NW 11 16.09 Fair CLR 16.8 0.8 34% 76.61 0.0
03 11:35 NW 6 16.09 Fair CLR 16.2 2.7 41% 76.63 0.0
03 11:15 SW 9 16.09 Fair CLR 15.8 1.1 37% 76.63 0.0
03 10:35 W 9 16.09 Fair CLR 15 3.8 47% 76.61 0.0
03 10:15 N 7 16.09 Fair CLR 14.1 4.2 52% 76.61 0.0
03 09:55 N 15 16.09 Fair CLR 13.5 4.2 54% 76.58 0.0
03 09:35 NW 9 16.09 Fair CLR 12.9 4.5 57% 76.58 0.0
03 09:15 N 15 16.09 Fair CLR 12.2 4.8 61% 76.58 0.0
03 08:55 N 15 16.09 Fair CLR 12 4.7 61% 76.58 0.0
03 08:35 N 15 16.09 Fair CLR 11.4 4.7 64% 76.56 0.0
03 08:15 N 9 16.09 Fair CLR 10.7 4.5 66% 76.56 0.0
03 07:55 N 11 16.09 Fair CLR 10 4.6 11.5 6.1 69% 9 76.53 0.0
03 07:35 NW 6 16.09 Fair CLR 9 4.2 72% 76.53 0.0
03 07:15 NW 7 16.09 Fair CLR 7.9 4.2 78% 7 76.5 0.0
03 06:55 Calm 16.09 Fair CLR 6.2 4.6 90% 76.5 0.0
03 06:35 Calm 16.09 Fair CLR 6.4 4.5 88% 76.5 0.0
03 06:15 Calm 16.09 Fair CLR 7 4.2 83% 76.48 0.0
03 05:55 Calm 16.09 Fair CLR 7.5 3.8 78% 76.45 0.0
03 05:35 Calm 16.09 Fair CLR 8 3.7 75% 76.45 0.0
03 05:15 Calm 16.09 Fair CLR 8.1 4 76% 76.45 0.0
03 04:55 Calm 16.09 Fair CLR 8 4.5 79% 76.45 0.0
03 04:35 NW 6 16.09 Fair CLR 9.3 3 65% 76.45 0.0
03 04:15 N 6 16.09 Fair CLR 9.7 2.7 62% 76.43 0.0
03 03:55 N 11 16.09 Partly Cloudy SCT075 9.5 2.7 63% 8 76.43 0.0
03 03:35 N 9 16.09 Fair CLR 10 2.5 60% 9 76.4 0.0
03 03:15 N 9 16.09 Fair CLR 10.3 2.3 58% 76.4 0.0
03 02:55 N 11 16.09 Fair CLR 10.7 2.1 56% 76.38 0.0
03 02:35 N 11 16.09 Fair CLR 11.1 2 54% 76.38 0.0
03 02:15 N 15 16.09 Fair CLR 11.3 1.9 53% 76.35 0.0
03 01:55 N 11 16.09 Fair CLR 11.5 1.8 17.6 10.3 52% 76.35 0.0
03 01:35 N 7 16.09 Fair CLR 11.7 1.8 51% 76.38 0.0
03 01:15 Calm 16.09 Fair CLR 11.8 1.7 50% 76.38 0.0
03 00:55 NW 7 16.09 Fair CLR 12 1.6 49% 76.35 0.0
03 00:35 NW 6 16.09 Fair CLR 10.9 2.6 57% 76.35 0.0
03 00:15 Calm 16.09 Fair CLR 10.5 4 64% 76.33 0.0
02 23:55 Calm 16.09 Fair CLR 12.5 1.8 48% 76.33 0.0
02 23:35 NW 6 16.09 Fair CLR 13.5 0.8 42% 76.33 0.0
02 23:15 NW 6 16.09 Fair CLR 13.2 1 44% 76.33 0.0
02 22:55 NW 6 16.09 Fair CLR 13.2 1.3 45% 76.3 0.0
02 22:35 Calm 16.09 Fair CLR 13.6 1.7 45% 76.3 0.0
02 22:15 NW 7 16.09 Fair CLR 14.1 1 41% 76.28 0.0
02 21:55 NW 7 16.09 Fair CLR 14.3 1.2 41% 76.25 0.0
02 21:35 NW 6 16.09 Fair CLR 14.6 1.5 41% 76.23 0.0
02 21:15 NW 7 16.09 Fair CLR 15.1 1.3 39% 76.2 0.0
02 20:55 NW 9 16.09 Fair CLR 15.6 1.3 38% 76.2 0.0
02 20:35 NW 7 16.09 Partly Cloudy SCT075 16.3 1.3 36% 76.15 0.0
02 20:15 NW 6 16.09 Partly Cloudy SCT075 17.1 0.6 33% 76.12 0.0
02 19:55 N 13 16.09 Fair CLR 17.6 0.2 20.8 17.6 31% 76.1 0.0
02 19:35 NW 20 16.09 Fair CLR 18.3 0 29% 76.07 0.0
02 19:15 NW 15 G 31 16.09 Fair CLR 18.5 -0.6 28% 76.05 0.0
02 18:55 NW 20 G 31 16.09 Fair CLR 19 -1 26% 76.05 0.0
02 18:35 N 30 G 37 16.09 Fair CLR 19.5 -1.6 24% 76.05 0.0
02 18:15 NW 26 G 31 16.09 Fair CLR 19.5 -1.8 24% 76.05 0.0
02 17:55 NW 30 G 41 16.09 Fair CLR 19.5 -1.4 24% 76.02 0.0
02 17:35 NW 17 G 30 16.09 Fair CLR 19.7 -1.4 24% 76.02 0.0
02 17:15 NW 20 G 33 16.09 Fair CLR 20.1 -0.2 26% 76 0.0
02 16:55 NW 28 G 35 16.09 Fair CLR 19.8 -0.1 26% 76 0.0
02 16:35 NW 22 G 39 16.09 Fair CLR 20 -0.1 26% 76 0.0
02 16:15 N 26 G 37 16.09 Fair CLR 20.2 0.7 27% 76 0.0
02 15:55 NW 24 G 30 16.09 Fair CLR 20.4 0.3 26% 75.97 0.0
02 15:35 NW 22 G 30 16.09 Fair CLR 20.3 2.1 30% 76 0.0
02 15:15 N 13 G 28 16.09 Fair CLR 20.6 2.3 30% 76 0.0
02 14:55 NW 11 G 28 16.09 Partly Cloudy SCT060 20.2 4 35% 75.97 0.0
02 14:35 NW 13 G 26 16.09 Fair CLR 20.2 4.1 35% 76 0.0
02 14:15 NW 19 16.09 Partly Cloudy SCT049 20.2 4.4 36% 76 0.0
02 13:55 N 20 G 28 16.09 Mostly Cloudy BKN049 20.1 6.1 20.1 11.6 40% 76 0.0 0.03
02 13:35 N 17 G 28 16.09 Fair CLR 19.5 6.3 42% 76 0.0
02 13:15 NW 19 G 26 16.09 Fair CLR 19.1 6 43% 76 0.0
02 12:55 N 19 G 28 16.09 Fair CLR 19.5 5.7 41% 76.02 0.0
02 12:35 N 17 G 26 16.09 Fair CLR 18.5 6.1 44% 76.02 0.0
02 12:15 NW 17 16.09 Partly Cloudy SCT120 17.6 6.7 49% 76.05 0.0
02 11:55 NW 17 16.09 Mostly Cloudy BKN095 17.1 7.4 53% 76.02 0.0
02 11:35 NW 17 16.09 Overcast OVC095 16.2 6.9 54% 76.05 0.0
02 11:15 N 15 16.09 Overcast OVC095 15.3 7.5 60% 76.05 0.0
02 10:55 N 22 16.09 Overcast OVC095 14.6 7.3 62% 76.02 0.0 0.03
02 10:35 N 15 16.09 Overcast OVC095 13.7 8 69% 76 0.0
02 10:15 N 13 16.09 Overcast OVC095 13.1 7.5 69% 76 0.0
02 09:55 N 11 16.09 Overcast OVC095 12.7 8.1 74% 76 0.0
02 09:35 N 13 16.09 Overcast OVC085 12.2 7.6 74% 76 0.0
02 09:15 N 7 16.09 Overcast OVC085 12 8.7 80% 76 0.0
02 08:55 N 6 16.09 Overcast OVC095 11.7 8.8 83% 75.97 0.0 0.03
02 08:35 Calm 16.09 Light Drizzle SCT075 OVC095 11.7 9 84% 76 0.0 0.03
02 08:15 W 6 16.09 Light Rain SCT075 OVC085 11.8 10.6 92% 76.07 0.0 0.03
02 07:55 Calm 16.09 Light Rain SCT055 SCT070 OVC095 11.9 10 13.7 11.9 88% 75.95 0.0 0.18
02 07:35 Calm 16.09 Light Rain SCT080 OVC095 12.1 11 93% 75.97 0.0
02 07:15 N 9 16.09 Light Rain OVC095 12.3 10.2 87% 75.92 0.0
02 06:55 Calm 16.09 Light Rain OVC095 12.6 11.1 91% 75.92 0.0 0.05
02 06:35 Calm 16.09 Rain OVC090 12.8 12.3 97% 76 0.0 0.03
02 06:15 Calm 16.09 Overcast OVC090 13 12.3 96% 76.02 0.0
02 05:55 Calm 16.09 Mostly Cloudy BKN100 BKN110 13 12 94% 75.95 0.0
02 05:35 Calm 16.09 Mostly Cloudy BKN100 13 11.8 93% 75.9 0.0
02 05:15 Calm 16.09 Light Rain OVC090 13.2 12.1 93% 75.92 0.0
02 04:55 NW 7 16.09 Overcast OVC090 13.1 12.3 95% 75.92 0.0 0.03 0.13
02 04:35 Calm 16.09 Light Rain OVC090 13.4 12.9 97% 75.92 0.0 0.03
02 04:15 W 6 16.09 Light Drizzle OVC100 13.5 13 97% 75.95 0.0 0.03
02 03:55 Calm 16.09 Drizzle OVC100 13.5 13 97% 75.95 0.0 0.05
02 03:35 Calm 11.27 Light Rain OVC090 13.6 13.1 97% 75.95 0.0 0.05
02 03:15 W 6 11.27 Drizzle OVC100 13.6 13.1 97% 75.97 0.0
02 02:55 Calm 16.09 Rain OVC090 13.7 13.2 97% 75.97 0.0 0.05
02 02:35 Calm 11.27 Light Rain OVC100 13.6 13.1 97% 76 0.0 0.03
02 02:15 Calm 16.09 Rain SCT090 OVC110 13.6 13.1 97% 76 0.0
02 01:55 Calm 16.09 Light Drizzle OVC110 13.7 13.2 16.1 13.7 97% 76.02 0.0
02 01:35 Calm 16.09 Drizzle OVC100 13.8 13.3 97% 76.02 0.0
02 01:15 W 6 16.09 Rain OVC090 14 13.5 97% 76.02 0.0
02 00:55 Calm 16.09 Light Drizzle BKN090 OVC100 14 13.4 96% 76.02 0.0
02 00:35 Calm 16.09 Overcast OVC090 14 13.4 96% 76.02 0.0
02 00:15 Calm 16.09 Overcast BKN090 OVC120 14 13.4 96% 76.02 0.0
01 23:55 Calm 16.09 Light Rain BKN090 BKN120 14.2 13.5 96% 76.02 0.0
01 23:35 Calm 16.09 Overcast SCT070 BKN090 OVC120 14.3 13.5 95% 76.05 0.0
Date Time (edt) Wind (kph) Vis. (km) Weather Sky Cond. Air Dwpt Max. Min. Relative Humidity Wind Chill (°C) Heat Index (°C) altimeter (cm) sea level (mb) 1 hr 3 hr 6 hr
6 hour
Temperature (ºC) Pressure Precipitation (cm)